Time;durP1;ratioP1;P1;durP2;ratioP2;P2;SDS_P1;SDS_P2;PMS_P1;PMS_P2;Temp;Humidity;BMP_temperature;BMP_pressure;BME280_temperature;BME280_humidity;BME280_pressure;Samples;Min_cycle;Max_cycle;Signal;HPM_P1;HPM_P2
2022/08/07 00:00:26;;;;;;;;;;;;;;;24.58;59.43;99255.22;3148847;28;19921;-65
2022/08/07 00:01:58;;;;;;;;;;;;;;;24.54;59.47;99259.19;3146747;28;19920;-65
2022/08/07 00:03:30;;;;;;;;;;;;;;;24.51;59.62;99268.34;3147019;28;19931;-65
2022/08/07 00:05:02;;;;;;;;;;;;;;;24.48;59.95;99267.88;3147017;28;19925;-65
2022/08/07 00:06:34;;;;;;;;;;;;;;;24.47;60.36;99269.72;3147046;28;19932;-65
2022/08/07 00:08:06;;;;;;;;;;;;;;;24.44;60.50;99263.91;3146794;28;20386;-65
2022/08/07 00:09:38;;;;;;;;;;;;;;;24.41;60.90;99258.91;3146922;28;19978;-65
2022/08/07 00:11:10;;;;;;;;;;;;;;;24.36;60.75;99253.25;3146881;28;19924;-65
2022/08/07 00:12:42;;;;;;;;;;;;;;;24.31;60.95;99253.75;3146748;28;19935;-65
2022/08/07 00:14:14;;;;;;;;;;;;;;;24.27;61.54;99257.78;3146690;28;19924;-65
2022/08/07 00:15:46;;;;;;;;;;;;;;;24.21;61.79;99253.94;3147190;28;19925;-65
2022/08/07 00:17:17;;;;;;;;;;;;;;;24.21;60.92;99255.78;3147102;28;19920;-65
2022/08/07 00:18:49;;;;;;;;;;;;;;;24.25;60.99;99255.28;3146927;28;19924;-65
2022/08/07 00:20:21;;;;;;;;;;;;;;;24.24;61.21;99248.28;3146748;28;19924;-65
2022/08/07 00:21:52;;;;;;;;;;;;;;;24.26;60.64;99256.94;3146285;28;19920;-65
2022/08/07 00:23:26;;;;;;;;;;;;;;;24.28;60.92;99254.09;3147160;28;19927;-65
2022/08/07 00:24:56;;;;;;;;;;;;;;;24.29;61.09;99258.44;3146900;28;20018;-65
2022/08/07 00:26:28;;;;;;;;;;;;;;;24.26;61.52;99251.63;3146904;28;19920;-65
2022/08/07 00:27:59;;;;;;;;;;;;;;;24.24;61.20;99250.13;3146864;28;19998;-64
2022/08/07 00:29:31;;;;;;;;;;;;;;;24.22;61.24;99255.59;3149578;28;20010;-64
2022/08/07 00:31:03;;;;;;;;;;;;;;;24.23;60.91;99248.47;3146753;28;19935;-66
2022/08/07 00:32:34;;;;;;;;;;;;;;;24.23;60.84;99251.97;3146893;28;20061;-67
2022/08/07 00:34:06;;;;;;;;;;;;;;;24.18;61.53;99246.31;3147118;28;19920;-66
2022/08/07 00:35:37;;;;;;;;;;;;;;;24.17;61.35;99246.50;3146959;28;19931;-65
2022/08/07 00:37:09;;;;;;;;;;;;;;;24.16;61.40;99250.13;3146916;28;19928;-66
2022/08/07 00:38:41;;;;;;;;;;;;;;;24.12;61.32;99246.16;3147038;28;19933;-66
2022/08/07 00:40:13;;;;;;;;;;;;;;;24.10;61.71;99246.31;3149365;28;19924;-65
2022/08/07 00:41:49;;;;;;;;;;;;;;;24.06;61.83;99250.34;3149233;28;19924;-66
2022/08/07 00:43:19;;;;;;;;;;;;;;;23.97;61.98;99243.38;3148871;28;20295;-65
2022/08/07 00:44:51;;;;;;;;;;;;;;;23.92;61.89;99248.34;3153710;28;19924;-66
2022/08/07 00:46:22;;;;;;;;;;;;;;;23.83;62.35;99245.72;3149375;28;19924;-66
2022/08/07 00:47:54;;;;;;;;;;;;;;;23.81;62.50;99247.72;3148841;28;19921;-66
2022/08/07 00:49:26;;;;;;;;;;;;;;;23.79;62.34;99248.88;3149020;28;19936;-66
2022/08/07 00:50:58;;;;;;;;;;;;;;;23.73;62.75;99249.56;3148728;28;19924;-66
2022/08/07 00:52:28;;;;;;;;;;;;;;;23.62;63.17;99248.84;3146558;28;19932;-66
2022/08/07 00:54:01;;;;;;;;;;;;;;;23.57;62.89;99250.34;3149068;28;19955;-66
2022/08/07 00:55:33;;;;;;;;;;;;;;;23.57;62.91;99251.19;3148747;28;20280;-66
2022/08/07 00:57:06;;;;;;;;;;;;;;;23.58;63.00;99249.38;3147676;28;19920;-66
2022/08/07 00:58:38;;;;;;;;;;;;;;;23.59;62.64;99243.03;3148978;28;20340;-66
2022/08/07 01:00:10;;;;;;;;;;;;;;;23.59;62.88;99245.69;3148914;28;20431;-66
2022/08/07 01:01:42;;;;;;;;;;;;;;;23.56;62.78;99249.50;3148790;28;19920;-66
2022/08/07 01:03:14;;;;;;;;;;;;;;;23.58;62.74;99257.34;3148882;28;19947;-67
2022/08/07 01:04:45;;;;;;;;;;;;;;;23.60;62.56;99260.63;3148955;28;19931;-67
2022/08/07 01:06:17;;;;;;;;;;;;;;;23.60;62.78;99256.19;3148727;28;19924;-67
2022/08/07 01:07:49;;;;;;;;;;;;;;;23.56;62.62;99249.50;3148524;28;20570;-67
2022/08/07 01:09:22;;;;;;;;;;;;;;;23.56;63.28;99252.16;3148824;28;19982;-66
2022/08/07 01:10:54;;;;;;;;;;;;;;;23.54;62.97;99256.81;3148712;28;19920;-66
2022/08/07 01:12:25;;;;;;;;;;;;;;;23.56;63.04;99256.66;3148536;28;19921;-67
2022/08/07 01:13:57;;;;;;;;;;;;;;;23.55;62.66;99253.19;3148508;28;19926;-66
2022/08/07 01:15:29;;;;;;;;;;;;;;;23.54;63.38;99258.66;3149006;28;20006;-66
2022/08/07 01:17:01;;;;;;;;;;;;;;;23.49;63.57;99253.03;3148439;28;19989;-66
2022/08/07 01:18:32;;;;;;;;;;;;;;;23.46;63.73;99256.84;3148485;28;19920;-67
2022/08/07 01:20:06;;;;;;;;;;;;;;;23.43;63.79;99253.69;3148493;28;20264;-66
2022/08/07 01:21:39;;;;;;;;;;;;;;;23.39;63.80;99246.00;3148378;28;20418;-66
2022/08/07 01:23:12;;;;;;;;;;;;;;;23.41;63.70;99248.50;3148499;28;19920;-66
2022/08/07 01:24:43;;;;;;;;;;;;;;;23.43;63.23;99248.38;3148415;28;20360;-66
2022/08/07 01:26:16;;;;;;;;;;;;;;;23.46;63.45;99243.53;3148678;28;19935;-66
2022/08/07 01:27:49;;;;;;;;;;;;;;;23.47;63.23;99245.19;3148620;28;19921;-66
2022/08/07 01:29:22;;;;;;;;;;;;;;;23.52;63.23;99250.84;3149232;28;20380;-66
2022/08/07 01:30:55;;;;;;;;;;;;;;;23.55;63.34;99250.53;3148333;28;19997;-66
2022/08/07 01:32:26;;;;;;;;;;;;;;;23.56;62.95;99249.50;3148231;28;19920;-65
2022/08/07 01:33:58;;;;;;;;;;;;;;;23.57;63.14;99234.41;3148435;28;19925;-66
2022/08/07 01:35:30;;;;;;;;;;;;;;;23.56;63.36;99243.38;3148461;28;19931;-65
2022/08/07 01:37:03;;;;;;;;;;;;;;;23.48;63.78;99246.03;3148160;28;20292;-65
2022/08/07 01:38:35;;;;;;;;;;;;;;;23.39;63.85;99243.34;3148590;28;19936;-66
2022/08/07 01:40:08;;;;;;;;;;;;;;;23.33;64.08;99244.00;3148427;28;19935;-65
2022/08/07 01:41:39;;;;;;;;;;;;;;;23.33;63.95;99240.53;3148281;28;20591;-65
2022/08/07 01:43:11;;;;;;;;;;;;;;;23.31;63.78;99239.88;3148389;28;19925;-65
2022/08/07 01:44:43;;;;;;;;;;;;;;;23.30;63.92;99235.56;3151334;28;19920;-66
2022/08/07 01:46:15;;;;;;;;;;;;;;;23.25;64.11;99233.41;3148165;28;20339;-65
2022/08/07 01:47:48;;;;;;;;;;;;;;;23.25;64.18;99233.41;3148137;28;20308;-66
2022/08/07 01:49:19;;;;;;;;;;;;;;;23.22;63.96;99236.38;3148237;28;19928;-66
2022/08/07 01:50:53;;;;;;;;;;;;;;;23.21;63.86;99234.72;3147132;28;20363;-66
2022/08/07 01:52:29;;;;;;;;;;;;;;;23.21;63.97;99237.38;3145532;28;19940;-66
2022/08/07 01:54:02;;;;;;;;;;;;;;;23.22;63.80;99239.03;3148451;28;19920;-66
2022/08/07 01:55:35;;;;;;;;;;;;;;;23.20;63.66;99249.00;3148343;28;20033;-66
2022/08/07 01:57:06;;;;;;;;;;;;;;;23.19;63.81;99246.50;3148264;28;20299;-66
2022/08/07 01:58:41;;;;;;;;;;;;;;;23.16;63.94;99239.69;3148181;28;20586;-66
2022/08/07 02:00:14;;;;;;;;;;;;;;;23.12;63.93;99235.69;3149613;28;20260;-66
2022/08/07 02:01:47;;;;;;;;;;;;;;;23.06;64.68;99245.13;3147967;28;19940;-66
2022/08/07 02:03:21;;;;;;;;;;;;;;;23.03;64.06;99242.81;3148156;28;20446;-66
2022/08/07 02:04:53;;;;;;;;;;;;;;;23.04;64.21;99244.50;3148166;28;20292;-66
2022/08/07 02:06:26;;;;;;;;;;;;;;;23.06;64.00;99244.31;3147780;28;20296;-66
2022/08/07 02:08:02;;;;;;;;;;;;;;;23.04;64.02;99246.28;3148080;28;19969;-66
2022/08/07 02:09:34;;;;;;;;;;;;;;;23.02;64.03;99243.00;3148215;28;20337;-66
2022/08/07 02:11:06;;;;;;;;;;;;;;;23.02;64.01;99248.31;3147882;28;19940;-66
2022/08/07 02:12:39;;;;;;;;;;;;;;;23.01;63.65;99243.97;3147993;28;19932;-66
2022/08/07 02:14:11;;;;;;;;;;;;;;;23.02;64.06;99245.66;3147906;28;19935;-66
2022/08/07 02:15:43;;;;;;;;;;;;;;;22.99;63.97;99244.16;3148337;28;19920;-66
2022/08/07 02:17:15;;;;;;;;;;;;;;;22.99;63.81;99244.16;3147858;28;19990;-66
2022/08/07 02:18:47;;;;;;;;;;;;;;;23.00;63.89;99243.13;3147700;28;20066;-65
2022/08/07 02:20:19;;;;;;;;;;;;;;;23.01;63.78;99238.66;3147813;28;19920;-66
2022/08/07 02:21:52;;;;;;;;;;;;;;;23.03;63.77;99242.81;3147644;28;19924;-66
2022/08/07 02:23:26;;;;;;;;;;;;;;;23.05;63.36;99240.00;3147873;28;19931;-66
2022/08/07 02:24:59;;;;;;;;;;;;;;;23.07;63.09;99238.00;3143659;28;19920;-66
2022/08/07 02:26:32;;;;;;;;;;;;;;;23.08;63.16;99237.03;3148102;28;19935;-65
2022/08/07 02:28:03;;;;;;;;;;;;;;;23.09;63.25;99234.19;3147880;28;19936;-66
2022/08/07 02:29:35;;;;;;;;;;;;;;;23.10;63.04;99240.31;3152526;28;19924;-66
2022/08/07 02:31:07;;;;;;;;;;;;;;;23.12;62.92;99227.72;3148732;28;19927;-66
2022/08/07 02:32:39;;;;;;;;;;;;;;;23.13;62.87;99230.22;3147942;28;19920;-66
2022/08/07 02:34:11;;;;;;;;;;;;;;;23.15;62.75;99228.22;3147578;28;19925;-66
2022/08/07 02:35:43;;;;;;;;;;;;;;;23.17;62.85;99228.06;3147541;28;20221;-66
2022/08/07 02:37:15;;;;;;;;;;;;;;;23.19;62.71;99236.72;3147593;28;20310;-65
2022/08/07 02:38:49;;;;;;;;;;;;;;;23.22;62.61;99232.88;3147889;28;19931;-66
2022/08/07 02:40:21;;;;;;;;;;;;;;;23.21;62.74;99231.22;3141713;28;19924;-66
2022/08/07 02:41:52;;;;;;;;;;;;;;;23.20;62.90;99232.22;3147570;28;20280;-66
2022/08/07 02:43:24;;;;;;;;;;;;;;;23.21;62.74;99228.56;3147479;28;19931;-66
2022/08/07 02:44:56;;;;;;;;;;;;;;;23.20;62.64;99227.75;3149228;28;19928;-66
2022/08/07 02:46:29;;;;;;;;;;;;;;;23.22;62.70;99225.75;3147374;28;19920;-67
2022/08/07 02:48:01;;;;;;;;;;;;;;;23.21;62.42;99233.88;3147292;28;20280;-66
2022/08/07 02:49:32;;;;;;;;;;;;;;;23.22;62.27;99233.72;3147728;28;19920;-66
2022/08/07 02:51:07;;;;;;;;;;;;;;;23.24;62.39;99230.91;3147706;28;19927;-65
2022/08/07 02:52:41;;;;;;;;;;;;;;;23.22;62.49;99233.72;3141358;28;20256;-65
2022/08/07 02:54:15;;;;;;;;;;;;;;;23.22;62.50;99233.72;3147410;28;19931;-66
2022/08/07 02:55:48;;;;;;;;;;;;;;;23.23;62.24;99231.91;3147437;28;20438;-66
2022/08/07 02:57:20;;;;;;;;;;;;;;;23.23;62.45;99231.91;3147543;28;20300;-66
2022/08/07 02:58:52;;;;;;;;;;;;;;;23.23;62.67;99237.22;3144985;28;19947;-66
2022/08/07 03:00:26;;;;;;;;;;;;;;;23.23;62.21;99237.22;3151374;28;19920;-66
2022/08/07 03:01:57;;;;;;;;;;;;;;;23.20;62.65;99235.72;3147240;28;20307;-66
2022/08/07 03:03:30;;;;;;;;;;;;;;;23.22;62.50;99238.19;3147479;28;19935;-65
2022/08/07 03:05:03;;;;;;;;;;;;;;;23.22;62.15;99228.41;3147385;28;19920;-66
2022/08/07 03:06:35;;;;;;;;;;;;;;;23.23;62.13;99238.03;3145589;28;20384;-66
2022/08/07 03:08:08;;;;;;;;;;;;;;;23.21;62.39;99232.06;3147007;28;19924;-66
2022/08/07 03:09:42;;;;;;;;;;;;;;;23.21;62.19;99234.72;3146391;28;20379;-66
2022/08/07 03:11:14;;;;;;;;;;;;;;;23.20;62.31;99234.88;3146884;28;19968;-66
2022/08/07 03:12:46;;;;;;;;;;;;;;;23.17;62.71;99236.03;3147380;28;19924;-66
2022/08/07 03:14:17;;;;;;;;;;;;;;;23.15;62.60;99240.69;3147416;28;19920;-66
2022/08/07 03:15:49;;;;;;;;;;;;;;;23.16;62.63;99235.22;3147570;28;19927;-65
2022/08/07 03:17:21;;;;;;;;;;;;;;;23.17;62.56;99230.72;3146878;28;19924;-66
2022/08/07 03:18:53;;;;;;;;;;;;;;;23.20;62.58;99241.03;3147267;28;19924;-66
2022/08/07 03:20:25;;;;;;;;;;;;;;;23.19;62.58;99247.34;3147365;28;19973;-66
2022/08/07 03:21:57;;;;;;;;;;;;;;;23.21;62.42;99250.66;3146866;28;19924;-66
2022/08/07 03:23:28;;;;;;;;;;;;;;;23.20;62.62;99248.16;3146995;28;20297;-66
2022/08/07 03:25:01;;;;;;;;;;;;;;;23.22;62.52;99241.69;3147153;28;19920;-66
2022/08/07 03:26:33;;;;;;;;;;;;;;;23.21;62.50;99253.31;3147480;28;19920;-66
2022/08/07 03:28:04;;;;;;;;;;;;;;;23.22;62.40;99254.97;3147173;28;19924;-66
2022/08/07 03:29:37;;;;;;;;;;;;;;;23.24;62.45;99249.50;3149798;28;19924;-66
2022/08/07 03:32:59;;;;;;;;;;;;;;;23.22;62.34;99254.97;3146995;28;19932;-67
2022/08/07 03:34:31;;;;;;;;;;;;;;;23.23;62.35;99246.00;3147040;28;19954;-67
2022/08/07 03:36:02;;;;;;;;;;;;;;;23.24;62.05;99263.59;3140886;28;19971;-67
2022/08/07 03:37:36;;;;;;;;;;;;;;;23.19;62.49;99257.97;3147244;28;19921;-67
2022/08/07 03:39:09;;;;;;;;;;;;;;;23.14;62.54;99257.63;3143857;28;20268;-66
2022/08/07 03:40:43;;;;;;;;;;;;;;;23.14;62.39;99260.28;3144954;28;20413;-66
2022/08/07 03:42:15;;;;;;;;;;;;;;;23.14;62.41;99262.94;3147167;28;19936;-67
2022/08/07 03:43:47;;;;;;;;;;;;;;;23.14;62.35;99261.09;3146845;28;19932;-66
2022/08/07 03:45:20;;;;;;;;;;;;;;;23.15;62.61;99261.94;3147352;28;19920;-67
2022/08/07 03:46:52;;;;;;;;;;;;;;;23.12;62.71;99267.56;3146480;28;19920;-67
2022/08/07 03:48:23;;;;;;;;;;;;;;;23.10;62.69;99265.09;3147067;28;19981;-66
2022/08/07 03:49:55;;;;;;;;;;;;;;;23.07;62.67;99264.56;3147029;28;19924;-66
2022/08/07 03:51:28;;;;;;;;;;;;;;;23.07;62.74;99275.19;3146898;28;19932;-67
2022/08/07 03:53:00;;;;;;;;;;;;;;;22.98;63.29;99266.34;3147125;28;19931;-66
2022/08/07 03:54:32;;;;;;;;;;;;;;;22.94;63.38;99265.84;3146787;28;19924;-66
2022/08/07 03:56:05;;;;;;;;;;;;;;;22.91;63.80;99260.00;3147197;28;19935;-67
2022/08/07 03:57:36;;;;;;;;;;;;;;;22.83;63.95;99258.16;3147017;28;19927;-66
2022/08/07 03:59:11;;;;;;;;;;;;;;;22.85;63.57;99261.50;3147179;28;20010;-66
2022/08/07 04:00:45;;;;;;;;;;;;;;;22.85;63.71;99263.31;3149366;28;19924;-67
2022/08/07 04:02:16;;;;;;;;;;;;;;;22.85;63.97;99264.13;3147165;28;19920;-67
2022/08/07 04:03:48;;;;;;;;;;;;;;;22.88;63.74;99270.97;3147022;28;19920;-66
2022/08/07 04:05:20;;;;;;;;;;;;;;;22.86;63.59;99265.78;3146957;28;20412;-67
2022/08/07 04:06:52;;;;;;;;;;;;;;;22.91;63.39;99265.31;3146312;28;20340;-66
2022/08/07 04:08:24;;;;;;;;;;;;;;;22.91;63.64;99260.84;3146878;28;19924;-67
2022/08/07 04:09:56;;;;;;;;;;;;;;;22.98;63.09;99268.19;3147025;28;19935;-67
2022/08/07 04:11:28;;;;;;;;;;;;;;;23.00;63.08;99263.56;3146811;28;19978;-67
2022/08/07 04:13:00;;;;;;;;;;;;;;;23.02;63.13;99266.88;3146808;28;19963;-66
2022/08/07 04:14:33;;;;;;;;;;;;;;;22.97;63.29;99264.72;3148674;28;19927;-67
2022/08/07 04:16:05;;;;;;;;;;;;;;;22.88;63.79;99266.47;3149476;28;20066;-67
2022/08/07 04:17:36;;;;;;;;;;;;;;;22.88;63.75;99265.66;3149336;28;19921;-67
2022/08/07 04:19:08;;;;;;;;;;;;;;;22.92;63.63;99267.84;3149152;28;19938;-67
2022/08/07 04:20:39;;;;;;;;;;;;;;;22.92;63.78;99267.84;3149316;28;19920;-67
2022/08/07 04:22:11;;;;;;;;;;;;;;;22.95;63.58;99264.03;3148899;28;19925;-67
2022/08/07 04:23:43;;;;;;;;;;;;;;;22.98;63.64;99270.84;3149154;28;20515;-67
2022/08/07 04:25:15;;;;;;;;;;;;;;;23.00;63.61;99264.38;3149412;28;19928;-67
2022/08/07 04:26:48;;;;;;;;;;;;;;;23.03;63.29;99271.19;3149139;28;19925;-67
2022/08/07 04:28:19;;;;;;;;;;;;;;;23.06;63.43;99265.56;3149127;28;19920;-67
2022/08/07 04:29:51;;;;;;;;;;;;;;;23.10;63.22;99269.53;3152422;28;20487;-67
2022/08/07 04:31:24;;;;;;;;;;;;;;;23.14;62.87;99266.41;3149129;28;20294;-66
2022/08/07 04:32:55;;;;;;;;;;;;;;;23.19;62.74;99268.59;3149001;28;20391;-66
2022/08/07 04:34:28;;;;;;;;;;;;;;;23.19;63.01;99268.59;3148960;28;20399;-67
2022/08/07 04:36:00;;;;;;;;;;;;;;;23.21;62.61;99266.59;3148881;28;19940;-67
2022/08/07 04:37:31;;;;;;;;;;;;;;;23.23;62.87;99267.25;3149224;28;19920;-67
2022/08/07 04:39:05;;;;;;;;;;;;;;;23.25;62.94;99269.75;3148903;28;19920;-67
2022/08/07 04:40:38;;;;;;;;;;;;;;;23.27;62.62;99265.94;3148882;28;19921;-67
2022/08/07 04:42:11;;;;;;;;;;;;;;;23.29;63.06;99255.97;3148747;28;20277;-67
2022/08/07 04:43:45;;;;;;;;;;;;;;;23.31;62.92;99264.63;3149122;28;19939;-67
2022/08/07 04:45:17;;;;;;;;;;;;;;;23.35;62.60;99262.47;3154411;28;19920;-67
2022/08/07 04:46:52;;;;;;;;;;;;;;;23.36;62.41;99267.59;3148697;28;20406;-67
2022/08/07 04:48:28;;;;;;;;;;;;;;;23.42;62.47;99273.25;3148695;28;19921;-67
2022/08/07 04:50:04;;;;;;;;;;;;;;;23.45;62.65;99279.06;3148893;28;19920;-66
2022/08/07 04:51:41;;;;;;;;;;;;;;;23.49;62.39;99269.78;3148768;28;19952;-66
2022/08/07 04:53:15;;;;;;;;;;;;;;;23.53;62.42;99280.91;3148703;28;20015;-67
2022/08/07 04:54:55;;;;;;;;;;;;;;;23.57;62.26;99276.91;3148710;28;19931;-66
2022/08/07 04:56:29;;;;;;;;;;;;;;;23.60;61.94;99276.59;3143330;28;19920;-67
2022/08/07 04:58:07;;;;;;;;;;;;;;;23.64;61.80;99282.44;3142448;28;20019;-67
2022/08/07 04:59:43;;;;;;;;;;;;;;;23.61;62.14;99281.75;3140784;28;19920;-67
2022/08/07 05:01:17;;;;;;;;;;;;;;;23.70;61.68;99285.28;3148691;28;19924;-67
2022/08/07 05:02:53;;;;;;;;;;;;;;;23.73;61.92;99282.28;3148675;28;19928;-67
2022/08/07 05:04:31;;;;;;;;;;;;;;;23.74;61.82;99277.78;3148769;28;20015;-66
2022/08/07 05:06:12;;;;;;;;;;;;;;;23.77;61.54;99285.44;3148756;28;20276;-66
2022/08/07 05:07:48;;;;;;;;;;;;;;;23.79;61.68;99281.63;3148635;28;20281;-66
2022/08/07 05:09:24;;;;;;;;;;;;;;;23.78;61.79;99282.63;3147709;28;20363;-66
2022/08/07 05:10:59;;;;;;;;;;;;;;;23.79;61.62;99286.09;3148892;28;19967;-66
2022/08/07 05:12:35;;;;;;;;;;;;;;;23.79;61.58;99289.59;3148492;28;20391;-66
2022/08/07 05:14:09;;;;;;;;;;;;;;;23.80;61.77;99293.91;3148432;28;20272;-66
2022/08/07 05:15:42;;;;;;;;;;;;;;;23.82;61.96;99289.25;3149007;28;19971;-66
2022/08/07 05:17:15;;;;;;;;;;;;;;;23.82;61.59;99297.22;3148712;28;19931;-66
2022/08/07 05:18:51;;;;;;;;;;;;;;;23.84;61.46;99295.25;3148721;28;19920;-66
2022/08/07 05:20:25;;;;;;;;;;;;;;;23.87;61.32;99291.44;3148646;28;19982;-66
2022/08/07 05:21:59;;;;;;;;;;;;;;;23.90;61.68;99293.75;3148316;28;19924;-66
2022/08/07 05:23:32;;;;;;;;;;;;;;;23.94;61.59;99294.25;3148211;28;20034;-66
2022/08/07 05:25:04;;;;;;;;;;;;;;;23.98;61.12;99290.22;3141638;28;19920;-66
2022/08/07 05:26:37;;;;;;;;;;;;;;;23.98;61.31;99299.03;3147550;28;20276;-66
2022/08/07 05:28:09;;;;;;;;;;;;;;;24.03;61.53;99299.38;3148280;28;20205;-66
2022/08/07 05:29:43;;;;;;;;;;;;;;;24.09;61.13;99287.22;3150229;28;20352;-66
2022/08/07 05:31:17;;;;;;;;;;;;;;;24.16;61.19;99292.72;3148002;28;20571;-66
2022/08/07 05:32:49;;;;;;;;;;;;;;;24.19;61.07;99303.00;3148422;28;19932;-66
2022/08/07 05:34:21;;;;;;;;;;;;;;;24.28;60.78;99309.97;3148240;28;19947;-66
2022/08/07 05:35:52;;;;;;;;;;;;;;;24.35;60.77;99310.16;3148606;28;19924;-66
2022/08/07 05:37:24;;;;;;;;;;;;;;;24.40;60.35;99315.75;3148188;28;19935;-66
2022/08/07 05:38:56;;;;;;;;;;;;;;;24.45;60.45;99311.63;3148382;28;19935;-66
2022/08/07 05:40:28;;;;;;;;;;;;;;;24.50;60.29;99316.47;3148369;28;20352;-66
2022/08/07 05:42:00;;;;;;;;;;;;;;;24.54;60.10;99317.75;3148412;28;19920;-66
2022/08/07 05:43:33;;;;;;;;;;;;;;;24.58;59.89;99312.91;3148374;28;19928;-66
2022/08/07 05:45:07;;;;;;;;;;;;;;;24.61;59.55;99313.44;3152144;28;19920;-66
2022/08/07 05:46:39;;;;;;;;;;;;;;;24.66;59.72;99310.25;3148385;28;19935;-66
2022/08/07 05:48:10;;;;;;;;;;;;;;;24.71;59.33;99313.22;3148246;28;20412;-66
2022/08/07 05:49:42;;;;;;;;;;;;;;;24.75;59.38;99315.34;3147580;28;19920;-66
2022/08/07 05:51:14;;;;;;;;;;;;;;;24.75;59.79;99317.19;3145903;28;20228;-66
2022/08/07 05:52:46;;;;;;;;;;;;;;;24.76;59.67;99316.22;3148411;28;19935;-66
2022/08/07 05:54:18;;;;;;;;;;;;;;;24.82;59.55;99315.53;3148001;28;19920;-66
2022/08/07 05:55:51;;;;;;;;;;;;;;;24.87;59.04;99322.97;3148095;28;20010;-66
2022/08/07 05:57:23;;;;;;;;;;;;;;;24.91;58.96;99324.31;3148212;28;19924;-66
2022/08/07 05:58:55;;;;;;;;;;;;;;;24.94;58.67;99323.97;3148108;28;19927;-66
2022/08/07 06:00:30;;;;;;;;;;;;;;;24.96;58.92;99328.13;3154051;28;20413;-66
2022/08/07 06:02:03;;;;;;;;;;;;;;;25.00;58.79;99328.59;3147819;28;20356;-67
2022/08/07 06:03:35;;;;;;;;;;;;;;;25.07;58.69;99334.88;3148003;28;20380;-66
2022/08/07 06:05:08;;;;;;;;;;;;;;;25.11;58.46;99338.88;3148184;28;19932;-66
2022/08/07 06:06:40;;;;;;;;;;;;;;;25.17;58.28;99335.53;3147871;28;19920;-66
2022/08/07 06:08:12;;;;;;;;;;;;;;;25.24;58.24;99329.50;3148045;28;19952;-66
2022/08/07 06:09:43;;;;;;;;;;;;;;;25.30;58.01;99329.63;3148198;28;19989;-66
2022/08/07 06:11:16;;;;;;;;;;;;;;;25.36;57.44;99336.91;3147815;28;19935;-66
2022/08/07 06:12:48;;;;;;;;;;;;;;;25.49;57.62;99328.31;3148010;28;19932;-66
2022/08/07 06:14:20;;;;;;;;;;;;;;;25.67;57.19;99337.88;3147893;28;19989;-66
2022/08/07 06:15:54;;;;;;;;;;;;;;;25.82;56.47;99339.63;3147967;28;20305;-66
2022/08/07 06:17:26;;;;;;;;;;;;;;;25.93;56.10;99335.69;3147914;28;19924;-66
2022/08/07 06:18:57;;;;;;;;;;;;;;;26.04;56.10;99337.94;3147822;28;19920;-66
2022/08/07 06:20:30;;;;;;;;;;;;;;;26.17;55.30;99339.16;3147836;28;19931;-66
2022/08/07 06:22:01;;;;;;;;;;;;;;;26.30;55.46;99339.38;3147770;28;19920;-66
2022/08/07 06:23:33;;;;;;;;;;;;;;;26.42;54.88;99335.25;3147902;28;19924;-66
2022/08/07 06:25:05;;;;;;;;;;;;;;;26.54;54.60;99338.34;3147963;28;19920;-66
2022/08/07 06:26:39;;;;;;;;;;;;;;;26.67;54.14;99338.50;3147705;28;19944;-66
2022/08/07 06:28:11;;;;;;;;;;;;;;;26.76;53.66;99339.25;3148164;28;19932;-66
2022/08/07 06:29:42;;;;;;;;;;;;;;;26.80;52.95;99337.88;3147365;28;19920;-66
2022/08/07 06:31:15;;;;;;;;;;;;;;;26.85;52.79;99340.78;3147421;28;19924;-66
2022/08/07 06:32:47;;;;;;;;;;;;;;;26.92;52.33;99338.22;3147506;28;19940;-66
2022/08/07 06:34:17;;;;;;;;;;;;;;;26.98;52.41;99338.31;3147889;28;19953;-66
2022/08/07 06:35:49;;;;;;;;;;;;;;;27.08;52.50;99339.84;3147585;28;20020;-66
2022/08/07 06:37:21;;;;;;;;;;;;;;;27.16;51.72;99343.28;3147035;28;19935;-66
2022/08/07 06:38:53;;;;;;;;;;;;;;;27.25;51.36;99340.50;3147734;28;19924;-66
2022/08/07 06:40:25;;;;;;;;;;;;;;;27.34;51.22;99347.41;3147933;28;19932;-66
2022/08/07 06:42:00;;;;;;;;;;;;;;;27.39;50.40;99332.44;3147561;28;19921;-66
2022/08/07 06:43:34;;;;;;;;;;;;;;;27.44;50.54;99340.72;3147374;28;19943;-66
2022/08/07 06:45:10;;;;;;;;;;;;;;;27.51;50.19;99334.59;3149776;28;19924;-66
2022/08/07 06:46:43;;;;;;;;;;;;;;;27.57;50.07;99345.38;3147427;28;19920;-66
2022/08/07 06:48:15;;;;;;;;;;;;;;;27.68;49.46;99336.00;3147493;28;19947;-67
2022/08/07 06:49:46;;;;;;;;;;;;;;;27.77;49.79;99336.72;3147411;28;19920;-67
2022/08/07 06:51:21;;;;;;;;;;;;;;;27.84;48.59;99338.47;3147676;28;19925;-67
2022/08/07 06:52:54;;;;;;;;;;;;;;;27.95;48.53;99321.03;3147695;28;19931;-67
2022/08/07 06:54:26;;;;;;;;;;;;;;;28.03;48.03;99334.28;3145172;28;19924;-67
2022/08/07 06:55:59;;;;;;;;;;;;;;;28.08;48.04;99326.53;3141521;28;19928;-64
2022/08/07 06:57:31;;;;;;;;;;;;;;;28.17;48.02;99335.25;3147686;28;20042;-67
2022/08/07 06:59:02;;;;;;;;;;;;;;;28.27;47.58;99334.88;3147581;28;20404;-67
2022/08/07 07:00:37;;;;;;;;;;;;;;;28.38;47.45;99336.22;3151900;28;20006;-67
2022/08/07 07:02:15;;;;;;;;;;;;;;;28.46;47.34;99333.41;3147596;28;20144;-67
2022/08/07 07:03:47;;;;;;;;;;;;;;;28.53;46.38;99336.94;3147518;28;19923;-67
2022/08/07 07:05:19;;;;;;;;;;;;;;;28.59;46.39;99333.47;3147716;28;19920;-67
2022/08/07 07:06:51;;;;;;;;;;;;;;;28.67;46.45;99333.34;3147060;28;20018;-67
2022/08/07 07:08:25;;;;;;;;;;;;;;;28.75;46.27;99338.53;3147252;28;19920;-67
2022/08/07 07:09:57;;;;;;;;;;;;;;;28.82;46.16;99330.53;3147335;28;19920;-67
2022/08/07 07:11:28;;;;;;;;;;;;;;;28.94;45.84;99336.13;3147575;28;19936;-67
2022/08/07 07:13:03;;;;;;;;;;;;;;;29.01;45.75;99336.97;3147581;28;19924;-67
2022/08/07 07:14:37;;;;;;;;;;;;;;;29.13;45.76;99340.78;3147287;28;19982;-67
2022/08/07 07:16:12;;;;;;;;;;;;;;;29.22;45.56;99338.75;3147454;28;19942;-64
2022/08/07 07:17:50;;;;;;;;;;;;;;;29.32;45.32;99344.56;3147364;28;19992;-66
2022/08/07 07:19:25;;;;;;;;;;;;;;;29.44;44.59;99339.44;3147206;28;19920;-66
2022/08/07 07:20:59;;;;;;;;;;;;;;;29.53;44.38;99334.72;3147191;28;20337;-66
2022/08/07 07:22:30;;;;;;;;;;;;;;;29.62;44.21;99347.75;3147107;28;20367;-66
2022/08/07 07:24:04;;;;;;;;;;;;;;;29.66;43.52;99338.25;3147379;28;19986;-66
2022/08/07 07:25:37;;;;;;;;;;;;;;;29.75;43.92;99340.75;3147328;28;19935;-66
2022/08/07 07:27:09;;;;;;;;;;;;;;;29.84;43.45;99343.03;3147400;28;19920;-66
2022/08/07 07:28:45;;;;;;;;;;;;;;;29.93;42.98;99338.28;3146967;28;19935;-66
2022/08/07 07:30:17;;;;;;;;;;;;;;;30.04;42.71;99339.53;3152138;28;20019;-67
2022/08/07 07:31:50;;;;;;;;;;;;;;;30.13;42.42;99341.78;3147196;28;19920;-66
2022/08/07 07:33:23;;;;;;;;;;;;;;;30.24;42.24;99339.56;3147140;28;20338;-66
2022/08/07 07:34:57;;;;;;;;;;;;;;;30.33;41.71;99336.44;3147230;28;20636;-66
2022/08/07 07:36:30;;;;;;;;;;;;;;;30.37;41.26;99347.59;3147116;28;19920;-66
2022/08/07 07:38:01;;;;;;;;;;;;;;;30.34;41.49;99345.31;3147495;28;20205;-66
2022/08/07 07:39:35;;;;;;;;;;;;;;;30.35;41.30;99344.31;3147289;28;19920;-66
2022/08/07 07:41:08;;;;;;;;;;;;;;;30.38;40.50;99343.88;3147050;28;19931;-66
2022/08/07 07:42:40;;;;;;;;;;;;;;;30.44;41.81;99347.56;3146536;28;19927;-66
2022/08/07 07:44:13;;;;;;;;;;;;;;;30.47;41.61;99341.81;3147081;28;20417;-66
2022/08/07 07:45:47;;;;;;;;;;;;;;;30.49;41.49;99348.59;3147454;28;19932;-66
2022/08/07 07:47:19;;;;;;;;;;;;;;;30.54;41.80;99359.56;3147122;28;19924;-67
2022/08/07 07:48:52;;;;;;;;;;;;;;;30.56;41.66;99354.81;3146463;28;20222;-66
2022/08/07 07:50:24;;;;;;;;;;;;;;;30.59;41.14;99356.25;3147134;28;19930;-67
2022/08/07 07:51:57;;;;;;;;;;;;;;;30.62;41.45;99355.00;3146917;28;19925;-66
2022/08/07 07:53:30;;;;;;;;;;;;;;;30.63;41.37;99351.28;3147017;28;19951;-66
2022/08/07 07:55:03;;;;;;;;;;;;;;;30.65;41.36;99349.22;3147194;28;19923;-66
2022/08/07 07:56:35;;;;;;;;;;;;;;;30.67;41.50;99345.25;3141308;28;20015;-66
2022/08/07 07:58:07;;;;;;;;;;;;;;;30.72;40.96;99358.06;3146956;28;20401;-66
2022/08/07 07:59:40;;;;;;;;;;;;;;;30.78;41.24;99355.38;3147086;28;19935;-66
2022/08/07 08:01:13;;;;;;;;;;;;;;;30.85;41.03;99349.16;3149119;28;19968;-66
2022/08/07 08:02:45;;;;;;;;;;;;;;;30.89;40.56;99353.91;3146949;28;20229;-66
2022/08/07 08:04:19;;;;;;;;;;;;;;;30.96;40.72;99357.38;3147318;28;19963;-66